Lavaltrie, Canada
Current Conditions -  °F | °C
As of 5:00 AM on Tuesday 21 Oct 2014 (Local Time) from CYHU Reporting Station
Light Rain Light Rain  
Wind Chill: 35°   Ceiling: 3900
Heat Index: 41°   Visibility: 9mi
Dew Point: 39°   Wind: 10mph
Humidity: 93%   Direction: 30°NNE
Pressure: 29.96"   Gusts: NA
Location:  45.88°N, 73.28°W
Report Text: CYHU 210900Z AUTO 03009KT 9SM -RA OVC039 05/04 A2996 RMK SLP145
Loading
Personal Weather Stations






























Interactive Weather Map New forecast layout! Learn more

10-Day Weather Forecast

Advertisements
Track Severe Weather on mobile